createdAt,value
2018-08-11T00:00:17.707Z,17.80
2018-08-11T00:02:57.739Z,17.70
2018-08-11T00:05:33.451Z,17.70
2018-08-11T00:08:09.729Z,17.70
2018-08-11T00:10:44.791Z,17.70
2018-08-11T00:13:24.420Z,17.60
2018-08-11T00:16:04.638Z,17.60
2018-08-11T00:18:44.825Z,17.60
2018-08-11T00:21:16.190Z,17.60
2018-08-11T00:23:56.244Z,17.60
2018-08-11T00:26:36.553Z,17.70
2018-08-11T00:29:16.841Z,17.70
2018-08-11T00:31:56.499Z,17.60
2018-08-11T00:34:28.531Z,17.60
2018-08-11T00:37:09.072Z,17.60
2018-08-11T00:39:40.867Z,17.60
2018-08-11T00:42:20.924Z,17.60
2018-08-11T00:44:56.634Z,17.60
2018-08-11T00:47:36.659Z,17.60
2018-08-11T00:50:18.334Z,17.50
2018-08-11T00:52:58.300Z,17.50
2018-08-11T00:55:31.140Z,17.50
2018-08-11T00:58:11.160Z,17.50
2018-08-11T01:00:51.002Z,17.50
2018-08-11T01:03:24.491Z,17.50
2018-08-11T01:05:57.201Z,17.40
2018-08-11T01:08:37.336Z,17.50
2018-08-11T01:11:17.661Z,17.50
2018-08-11T01:13:57.796Z,17.50
2018-08-11T01:16:30.468Z,17.60
2018-08-11T01:19:10.179Z,17.60
2018-08-11T01:21:49.626Z,17.60
2018-08-11T01:24:21.616Z,17.60
2018-08-11T01:27:01.829Z,17.60
2018-08-11T01:29:41.824Z,17.60
2018-08-11T01:32:21.812Z,17.60
2018-08-11T01:35:01.428Z,17.50
2018-08-11T01:37:42.057Z,17.50
2018-08-11T01:40:21.644Z,17.40
2018-08-11T01:43:01.500Z,17.40
2018-08-11T01:45:41.734Z,17.40
2018-08-11T01:48:14.240Z,17.40
2018-08-11T01:50:46.163Z,17.40
2018-08-11T01:53:23.746Z,17.40
2018-08-11T01:56:03.771Z,17.40
2018-08-11T01:58:35.511Z,17.40
2018-08-11T02:01:07.214Z,17.40
2018-08-11T02:03:38.674Z,17.40
2018-08-11T02:06:18.684Z,17.30
2018-08-11T02:08:50.126Z,17.40
2018-08-11T02:11:28.274Z,17.30
2018-08-11T02:14:08.377Z,17.30
2018-08-11T02:16:48.147Z,17.30
2018-08-11T02:19:28.426Z,17.30
2018-08-11T02:22:04.446Z,17.30
2018-08-11T02:24:45.215Z,17.20
2018-08-11T02:27:17.972Z,17.20
2018-08-11T02:29:58.850Z,17.20
2018-08-11T02:32:38.868Z,17.10
2018-08-11T02:35:11.772Z,17.20
2018-08-11T02:37:51.675Z,17.20
2018-08-11T02:40:23.360Z,17.30
2018-08-11T02:42:55.764Z,17.30
2018-08-11T02:45:28.036Z,17.30
2018-08-11T02:48:01.413Z,17.30
2018-08-11T02:50:32.693Z,17.30
2018-08-11T02:53:04.187Z,17.20
2018-08-11T02:55:44.379Z,17.20
2018-08-11T02:58:24.446Z,17.20
2018-08-11T03:00:55.940Z,17.20
2018-08-11T03:03:35.879Z,17.20
2018-08-11T03:06:10.057Z,17.20
2018-08-11T03:08:50.495Z,17.10
2018-08-11T03:11:30.513Z,17.10
2018-08-11T03:14:10.260Z,17.10
2018-08-11T03:16:48.267Z,17.00
2018-08-11T03:19:20.150Z,17.00
2018-08-11T03:22:00.067Z,17.10
2018-08-11T03:24:37.257Z,17.10
2018-08-11T03:27:09.286Z,17.20
2018-08-11T03:29:49.135Z,17.20
2018-08-11T03:32:28.891Z,17.30
2018-08-11T03:35:00.751Z,17.20
2018-08-11T03:37:31.482Z,17.30
2018-08-11T03:40:07.606Z,17.30
2018-08-11T03:42:38.999Z,17.30
2018-08-11T03:45:10.360Z,17.30
2018-08-11T03:47:41.600Z,17.30
2018-08-11T03:50:13.300Z,17.30
2018-08-11T03:52:45.389Z,17.20
2018-08-11T03:55:21.829Z,17.10
2018-08-11T03:58:02.156Z,17.20
2018-08-11T04:00:34.057Z,17.10
2018-08-11T04:03:14.047Z,17.00
2018-08-11T04:05:54.260Z,17.10
2018-08-11T04:08:26.949Z,17.10
2018-08-11T04:11:00.380Z,17.10
2018-08-11T04:13:40.898Z,17.20
2018-08-11T04:16:13.248Z,17.10
2018-08-11T04:18:44.680Z,17.20
2018-08-11T04:21:18.801Z,17.20
2018-08-11T04:23:58.778Z,17.20
2018-08-11T04:26:38.748Z,17.10
2018-08-11T04:29:18.962Z,17.10
2018-08-11T04:31:59.542Z,17.10
2018-08-11T04:34:40.012Z,17.00
2018-08-11T04:37:20.015Z,17.00
2018-08-11T04:40:00.296Z,17.00
2018-08-11T04:42:40.266Z,17.10
2018-08-11T04:45:20.373Z,17.10
2018-08-11T04:48:00.700Z,17.10
2018-08-11T04:50:41.021Z,17.10
2018-08-11T04:53:21.257Z,17.10
2018-08-11T04:56:01.751Z,17.10
2018-08-11T04:58:38.934Z,17.10
2018-08-11T05:01:19.186Z,17.10
2018-08-11T05:03:59.226Z,17.20
2018-08-11T05:06:39.537Z,17.20
2018-08-11T05:09:20.007Z,17.30
2018-08-11T05:12:00.087Z,17.40
2018-08-11T05:14:32.727Z,17.40
2018-08-11T05:17:13.178Z,17.50
2018-08-11T05:19:53.835Z,17.60
2018-08-11T05:22:33.598Z,17.60
2018-08-11T05:25:13.031Z,17.60
2018-08-11T05:27:52.690Z,17.70
2018-08-11T05:30:32.462Z,17.90
2018-08-11T05:33:12.416Z,17.90
2018-08-11T05:35:52.268Z,18.00
2018-08-11T05:38:31.882Z,18.10
2018-08-11T05:41:12.029Z,18.10
2018-08-11T05:43:52.552Z,18.30
2018-08-11T05:46:32.966Z,18.30
2018-08-11T05:49:12.889Z,18.40
2018-08-11T05:51:52.880Z,18.50
2018-08-11T05:54:32.990Z,18.70
2018-08-11T05:57:12.910Z,18.80
2018-08-11T05:59:50.681Z,19.00
2018-08-11T06:02:30.593Z,19.50
2018-08-11T06:05:07.777Z,20.00
2018-08-11T06:07:47.694Z,20.20
2018-08-11T06:23:14.400Z,20.30
2018-08-11T06:25:46.669Z,20.20
2018-08-11T06:28:17.960Z,19.10
2018-08-11T06:30:49.781Z,19.00
2018-08-11T06:33:21.200Z,19.00
2018-08-11T06:35:53.051Z,19.00
2018-08-11T06:38:32.886Z,19.00
2018-08-11T06:41:13.023Z,19.00
2018-08-11T06:43:52.685Z,19.00
2018-08-11T06:46:32.930Z,19.00
2018-08-11T06:49:10.797Z,19.00
2018-08-11T06:51:41.955Z,19.00
2018-08-11T06:54:14.684Z,19.00
2018-08-11T06:56:46.505Z,19.00
2018-08-11T06:59:17.731Z,19.00
2018-08-11T07:01:57.331Z,19.00
2018-08-11T07:04:37.103Z,19.20
2018-08-11T07:07:08.502Z,19.40
2018-08-11T07:09:40.561Z,19.50
2018-08-11T07:12:13.181Z,19.60
2018-08-11T07:14:45.631Z,19.60
2018-08-11T07:17:16.986Z,19.60
2018-08-11T07:19:56.267Z,19.60
2018-08-11T07:22:32.206Z,19.60
2018-08-11T07:25:04.857Z,19.60
2018-08-11T07:27:37.307Z,19.50
2018-08-11T07:30:09.857Z,19.60
2018-08-11T07:32:50.210Z,19.60
2018-08-11T07:35:21.215Z,19.60
2018-08-11T07:38:01.309Z,19.70
2018-08-11T07:40:44.015Z,19.80
2018-08-11T07:43:24.354Z,19.70
2018-08-11T07:46:04.874Z,19.70
2018-08-11T07:48:44.313Z,19.80
2018-08-11T07:51:24.216Z,19.80
2018-08-11T07:54:05.758Z,19.90
2018-08-11T07:56:47.155Z,19.90
2018-08-11T07:59:26.969Z,19.90
2018-08-11T08:02:07.290Z,20.00
2018-08-11T08:04:47.516Z,20.00
2018-08-11T08:07:28.112Z,20.00
2018-08-11T08:10:08.728Z,19.90
2018-08-11T08:12:48.658Z,20.00
2018-08-11T08:15:28.696Z,20.00
2018-08-11T08:18:08.577Z,20.00
2018-08-11T08:20:49.087Z,20.00
2018-08-11T08:23:29.087Z,20.00
2018-08-11T08:26:09.204Z,20.10
2018-08-11T08:28:49.459Z,20.10
2018-08-11T08:31:28.768Z,20.20
2018-08-11T08:34:04.903Z,20.20
2018-08-11T08:36:40.133Z,20.20
2018-08-11T08:39:16.625Z,20.20
2018-08-11T08:41:56.546Z,20.20
2018-08-11T08:44:33.779Z,20.30
2018-08-11T08:47:13.566Z,20.30
2018-08-11T08:49:52.892Z,20.40
2018-08-11T08:52:32.247Z,20.40
2018-08-11T08:55:11.954Z,20.50
2018-08-11T08:57:51.859Z,20.50
2018-08-11T09:00:31.352Z,20.60
2018-08-11T09:03:10.499Z,20.70
2018-08-11T09:05:51.080Z,20.80
2018-08-11T09:08:30.933Z,20.90
2018-08-11T09:11:03.074Z,21.00
2018-08-11T09:13:42.685Z,21.00
2018-08-11T09:16:20.628Z,21.00
2018-08-11T09:18:58.886Z,21.10
2018-08-11T09:21:38.567Z,21.10
2018-08-11T09:24:18.449Z,21.20
2018-08-11T09:26:58.954Z,21.30
2018-08-11T09:29:40.313Z,21.40
2018-08-11T09:32:19.973Z,21.60
2018-08-11T09:34:59.487Z,21.60
2018-08-11T09:37:41.280Z,21.70
2018-08-11T09:40:21.338Z,21.70
2018-08-11T09:42:57.274Z,21.90
2018-08-11T09:45:28.683Z,22.10
2018-08-11T09:47:59.873Z,22.40
2018-08-11T09:50:31.512Z,22.70
2018-08-11T09:53:04.423Z,23.00
2018-08-11T09:55:42.458Z,23.20
2018-08-11T09:58:22.104Z,23.40
2018-08-11T10:00:57.994Z,23.50
2018-08-11T10:03:28.525Z,23.70
2018-08-11T10:05:59.144Z,23.90
2018-08-11T10:08:29.516Z,24.00
2018-08-11T10:11:00.254Z,24.00
2018-08-11T10:13:31.404Z,23.90
2018-08-11T10:16:03.675Z,23.80
2018-08-11T10:18:37.101Z,23.70
2018-08-11T10:21:09.269Z,23.50
2018-08-11T10:23:49.251Z,23.40
2018-08-11T10:26:21.230Z,23.30
2018-08-11T10:28:58.434Z,23.10
2018-08-11T10:31:38.921Z,23.00
2018-08-11T10:34:09.362Z,23.00
2018-08-11T10:36:41.423Z,22.90
2018-08-11T10:39:17.227Z,23.00
2018-08-11T10:41:56.925Z,23.10
2018-08-11T10:44:28.660Z,23.20
2018-08-11T10:47:00.189Z,23.30
2018-08-11T10:49:31.551Z,23.40
2018-08-11T10:52:03.210Z,23.30
2018-08-11T10:54:34.912Z,23.30
2018-08-11T10:57:14.667Z,23.20
2018-08-11T10:59:54.134Z,23.20
2018-08-11T11:02:24.556Z,23.20
2018-08-11T11:04:55.719Z,23.10
2018-08-11T11:07:36.940Z,23.10
2018-08-11T11:10:08.534Z,23.10
2018-08-11T11:12:40.552Z,23.10
2018-08-11T11:15:12.807Z,23.00
2018-08-11T11:17:52.500Z,23.00
2018-08-11T11:20:23.523Z,23.00
2018-08-11T11:22:55.121Z,23.00
2018-08-11T11:25:34.866Z,23.00
2018-08-11T11:28:14.497Z,23.10
2018-08-11T11:30:53.996Z,23.20
2018-08-11T11:33:25.926Z,23.20
2018-08-11T11:36:05.813Z,23.20
2018-08-11T11:38:45.071Z,23.20
2018-08-11T11:41:16.601Z,23.20
2018-08-11T11:43:56.881Z,23.20
2018-08-11T11:46:30.453Z,23.20
2018-08-11T11:49:02.221Z,23.30
2018-08-11T11:51:34.161Z,23.30
2018-08-11T11:54:06.100Z,23.40
2018-08-11T11:56:38.040Z,23.40
2018-08-11T11:59:18.149Z,23.50
2018-08-11T12:01:50.038Z,23.60
2018-08-11T12:04:29.495Z,23.70
2018-08-11T12:07:02.854Z,23.80
2018-08-11T12:09:34.514Z,23.90
2018-08-11T12:12:07.227Z,24.10
2018-08-11T12:14:39.736Z,24.20
2018-08-11T12:17:12.506Z,24.40
2018-08-11T12:19:44.750Z,24.60
2018-08-11T12:22:15.929Z,24.60
2018-08-11T12:24:47.461Z,24.60
2018-08-11T12:27:19.512Z,24.70
2018-08-11T12:30:01.230Z,24.70
2018-08-11T12:32:32.768Z,24.70
2018-08-11T12:35:12.858Z,24.60
2018-08-11T12:37:43.968Z,24.60
2018-08-11T12:40:23.545Z,24.50
2018-08-11T12:43:00.896Z,24.40
2018-08-11T12:45:32.890Z,24.40
2018-08-11T12:48:05.597Z,24.50
2018-08-11T12:50:37.637Z,24.50
2018-08-11T12:53:09.297Z,24.40
2018-08-11T12:55:49.164Z,24.30
2018-08-11T12:58:22.473Z,24.30
2018-08-11T13:01:02.130Z,24.30
2018-08-11T13:03:33.291Z,24.30
2018-08-11T13:06:05.211Z,24.30
2018-08-11T13:08:37.359Z,24.30
2018-08-11T13:11:09.959Z,24.40
2018-08-11T13:13:41.489Z,24.50
2018-08-11T13:16:13.352Z,24.70
2018-08-11T13:18:44.170Z,24.70
2018-08-11T13:21:14.939Z,24.80
2018-08-11T13:23:46.638Z,24.90
2018-08-11T13:26:18.573Z,24.90
2018-08-11T13:28:58.319Z,24.90
2018-08-11T13:31:28.988Z,24.80
2018-08-11T13:34:00.508Z,24.90
2018-08-11T13:36:32.140Z,24.90
2018-08-11T13:39:03.379Z,24.90
2018-08-11T13:41:45.288Z,25.00
2018-08-11T13:44:18.159Z,25.10
2018-08-11T13:46:50.071Z,25.00
2018-08-11T13:49:23.441Z,24.90
2018-08-11T13:51:54.308Z,24.90
2018-08-11T13:54:29.006Z,24.80
2018-08-11T13:57:02.412Z,24.60
2018-08-11T13:59:34.172Z,24.50
2018-08-11T14:02:13.928Z,24.50
2018-08-11T14:04:46.549Z,24.50
2018-08-11T14:07:18.209Z,24.40
2018-08-11T14:09:48.899Z,24.30
2018-08-11T14:12:20.939Z,24.30
2018-08-11T14:14:53.625Z,24.20
2018-08-11T14:17:25.489Z,24.20
2018-08-11T14:19:56.940Z,24.20
2018-08-11T14:22:28.828Z,24.10
2018-08-11T14:25:08.670Z,24.00
2018-08-11T14:27:44.403Z,23.90
2018-08-11T14:30:25.594Z,23.90
2018-08-11T14:33:06.350Z,23.90
2018-08-11T14:35:46.596Z,23.90
2018-08-11T14:38:26.990Z,23.90
2018-08-11T14:41:06.881Z,24.00
2018-08-11T14:43:46.747Z,24.00
2018-08-11T14:46:26.564Z,24.10
2018-08-11T14:49:06.770Z,24.00
2018-08-11T14:51:46.385Z,24.00
2018-08-11T14:54:26.757Z,23.90
2018-08-11T14:57:06.391Z,23.90
2018-08-11T14:59:41.081Z,23.90
2018-08-11T15:02:20.936Z,24.00
2018-08-11T15:05:01.396Z,24.00
2018-08-11T15:07:42.403Z,23.90
2018-08-11T15:10:22.302Z,23.90
2018-08-11T15:12:55.432Z,23.90
2018-08-11T15:15:33.369Z,23.90
2018-08-11T15:18:14.055Z,23.90
2018-08-11T15:20:54.585Z,23.90
2018-08-11T15:23:34.204Z,23.90
2018-08-11T15:26:14.007Z,23.90
2018-08-11T15:28:53.345Z,23.90
2018-08-11T15:31:31.987Z,23.90
2018-08-11T15:34:09.656Z,23.90
2018-08-11T15:36:50.669Z,23.90
2018-08-11T15:39:29.782Z,24.00
2018-08-11T15:42:09.511Z,24.00
2018-08-11T15:44:49.299Z,24.00
2018-08-11T15:47:27.692Z,24.00
2018-08-11T15:50:06.939Z,23.90
2018-08-11T15:52:46.495Z,23.90
2018-08-11T15:55:25.812Z,23.90
2018-08-11T15:58:03.815Z,23.90
2018-08-11T16:00:43.489Z,23.90
2018-08-11T16:03:22.194Z,23.90
2018-08-11T16:06:02.526Z,23.90
2018-08-11T16:08:42.166Z,23.80
2018-08-11T16:11:21.599Z,23.80
2018-08-11T16:14:01.051Z,23.80
2018-08-11T16:16:40.736Z,23.70
2018-08-11T16:19:20.563Z,23.60
2018-08-11T16:22:00.416Z,23.60
2018-08-11T16:24:39.792Z,23.60
2018-08-11T16:27:20.362Z,23.50
2018-08-11T16:29:59.657Z,23.50
2018-08-11T16:32:37.391Z,23.50
2018-08-11T16:35:18.227Z,23.50
2018-08-11T16:37:57.851Z,23.50
2018-08-11T16:40:37.649Z,23.40
2018-08-11T16:43:17.318Z,23.40
2018-08-11T16:45:56.721Z,23.40
2018-08-11T16:48:36.243Z,23.40
2018-08-11T16:51:15.876Z,23.30
2018-08-11T16:53:55.401Z,23.30
2018-08-11T16:56:34.870Z,23.30
2018-08-11T16:59:14.851Z,23.30
2018-08-11T17:01:54.435Z,23.20
2018-08-11T17:04:34.268Z,23.20
2018-08-11T17:07:14.651Z,23.10
2018-08-11T17:09:54.038Z,23.10
2018-08-11T17:12:33.516Z,23.10
2018-08-11T17:15:13.346Z,23.10
2018-08-11T17:17:53.877Z,23.00
2018-08-11T17:20:33.796Z,23.00
2018-08-11T17:23:13.797Z,23.00
2018-08-11T17:25:53.558Z,23.00
2018-08-11T17:28:33.279Z,22.90
2018-08-11T17:31:12.623Z,22.90
2018-08-11T17:33:52.318Z,22.90
2018-08-11T17:36:31.782Z,22.90
2018-08-11T17:39:11.937Z,22.80
2018-08-11T17:41:54.987Z,22.80
2018-08-11T17:44:34.640Z,22.80
2018-08-11T17:47:14.003Z,22.80
2018-08-11T17:49:54.224Z,22.80
2018-08-11T17:52:33.490Z,22.80
2018-08-11T17:55:13.333Z,22.70
2018-08-11T17:57:52.967Z,22.70
2018-08-11T18:00:32.521Z,22.60
2018-08-11T18:03:12.470Z,22.60
2018-08-11T18:05:51.768Z,22.60
2018-08-11T18:08:31.097Z,22.60
2018-08-11T18:11:10.584Z,22.50
2018-08-11T18:13:50.303Z,22.50
2018-08-11T18:16:30.479Z,22.40
2018-08-11T18:19:10.813Z,22.40
2018-08-11T18:21:50.474Z,22.40
2018-08-11T18:24:30.522Z,22.40
2018-08-11T18:27:10.884Z,22.40
2018-08-11T18:29:50.245Z,22.40
2018-08-11T18:32:30.099Z,22.30
2018-08-11T18:35:09.789Z,22.30
2018-08-11T18:37:49.055Z,22.20
2018-08-11T18:40:28.997Z,22.20
2018-08-11T18:43:08.800Z,22.20
2018-08-11T18:45:49.583Z,22.20
2018-08-11T18:48:31.371Z,22.10
2018-08-11T18:51:11.378Z,22.10
2018-08-11T18:53:51.119Z,22.10
2018-08-11T18:56:30.653Z,22.00
2018-08-11T18:59:10.396Z,22.00
2018-08-11T19:01:51.478Z,22.00
2018-08-11T19:04:30.806Z,21.90
2018-08-11T19:07:02.787Z,21.90
2018-08-11T19:09:40.383Z,21.90
2018-08-11T19:12:17.950Z,21.90
2018-08-11T19:14:57.977Z,21.80
2018-08-11T19:17:37.454Z,21.80
2018-08-11T19:20:17.331Z,21.80
2018-08-11T19:22:57.016Z,21.70
2018-08-11T19:25:36.874Z,21.70
2018-08-11T19:28:16.733Z,21.70
2018-08-11T19:30:56.436Z,21.70
2018-08-11T19:33:36.196Z,21.60
2018-08-11T19:36:16.115Z,21.60
2018-08-11T19:38:54.379Z,21.50
2018-08-11T19:41:31.300Z,21.40
2018-08-11T19:44:07.878Z,21.40
2018-08-11T19:46:47.137Z,21.40
2018-08-11T19:49:19.687Z,21.40
2018-08-11T19:51:59.186Z,21.30
2018-08-11T19:54:40.096Z,21.30
2018-08-11T19:57:20.011Z,21.30
2018-08-11T19:59:59.249Z,21.20
2018-08-11T20:02:31.219Z,21.20
2018-08-11T20:05:02.788Z,21.20
2018-08-11T20:07:42.909Z,21.20
2018-08-11T20:10:22.456Z,21.20
2018-08-11T20:13:01.806Z,21.10
2018-08-11T20:15:41.767Z,21.10
2018-08-11T20:18:17.121Z,21.10
2018-08-11T20:20:52.857Z,21.10
2018-08-11T20:23:32.487Z,21.00
2018-08-11T20:26:12.430Z,20.90
2018-08-11T20:28:52.003Z,20.90
2018-08-11T20:31:31.552Z,20.90
2018-08-11T20:34:11.562Z,20.90
2018-08-11T20:36:50.889Z,20.80
2018-08-11T20:39:27.954Z,20.70
2018-08-11T20:41:59.643Z,20.60
2018-08-11T20:44:35.701Z,20.60
2018-08-11T20:47:15.272Z,20.60
2018-08-11T20:49:55.044Z,20.50
2018-08-11T20:52:27.127Z,20.60
2018-08-11T20:54:57.682Z,20.50
2018-08-11T20:57:29.052Z,20.50
2018-08-11T21:00:00.372Z,20.40
2018-08-11T21:02:31.885Z,20.30
2018-08-11T21:05:02.546Z,20.30
2018-08-11T21:07:34.118Z,20.30
2018-08-11T21:10:05.139Z,20.30
2018-08-11T21:12:43.548Z,20.30
2018-08-11T21:15:17.641Z,20.30
2018-08-11T21:17:51.677Z,20.20
2018-08-11T21:20:24.538Z,20.20
2018-08-11T21:22:56.907Z,20.10
2018-08-11T21:25:31.976Z,20.10
2018-08-11T21:28:09.737Z,20.10
2018-08-11T21:30:43.217Z,20.10
2018-08-11T21:33:14.526Z,20.10
2018-08-11T21:35:48.877Z,20.10
2018-08-11T21:38:22.007Z,20.00
2018-08-11T21:40:57.566Z,19.90
2018-08-11T21:43:32.628Z,19.90
2018-08-11T21:46:05.017Z,19.80
2018-08-11T21:48:44.758Z,19.80
2018-08-11T21:51:20.476Z,19.70
2018-08-11T21:53:56.556Z,19.70
2018-08-11T21:56:28.141Z,19.70
2018-08-11T21:58:59.466Z,19.70
2018-08-11T22:01:31.233Z,19.70
2018-08-11T22:04:01.716Z,19.70
2018-08-11T22:06:33.196Z,19.80
2018-08-11T22:09:08.128Z,19.80
2018-08-11T22:11:39.680Z,19.80
2018-08-11T22:14:11.310Z,19.70
2018-08-11T22:16:43.706Z,19.70
2018-08-11T22:19:15.018Z,19.70
2018-08-11T22:21:46.407Z,19.70
2018-08-11T22:24:17.726Z,19.60
2018-08-11T22:26:50.425Z,19.60
2018-08-11T22:29:30.066Z,19.60
2018-08-11T22:32:02.116Z,19.50
2018-08-11T22:34:33.954Z,19.50
2018-08-11T22:37:08.134Z,19.40
2018-08-11T22:39:47.624Z,19.40
2018-08-11T22:42:19.618Z,19.30
2018-08-11T22:44:58.761Z,19.20
2018-08-11T22:47:39.008Z,19.20
2018-08-11T22:50:14.297Z,19.20
2018-08-11T22:52:46.384Z,19.20
2018-08-11T22:55:25.870Z,19.20
2018-08-11T22:57:56.890Z,19.20
2018-08-11T23:00:37.482Z,19.20
2018-08-11T23:03:17.819Z,19.20
2018-08-11T23:05:57.950Z,19.10
2018-08-11T23:08:29.811Z,19.10
2018-08-11T23:11:02.761Z,19.10
2018-08-11T23:13:33.892Z,19.10
2018-08-11T23:16:04.871Z,19.10
2018-08-11T23:18:43.821Z,19.00
2018-08-11T23:21:16.812Z,18.90
2018-08-11T23:23:56.698Z,18.90
2018-08-11T23:26:36.837Z,18.90
2018-08-11T23:29:07.990Z,18.90
2018-08-11T23:31:39.607Z,18.90
2018-08-11T23:34:10.577Z,18.80
2018-08-11T23:36:42.291Z,18.80
2018-08-11T23:39:13.741Z,18.80
2018-08-11T23:41:45.852Z,18.80
2018-08-11T23:44:26.569Z,18.80
2018-08-11T23:47:06.629Z,18.80
2018-08-11T23:49:38.718Z,18.80
2018-08-11T23:52:10.430Z,18.80
2018-08-11T23:54:50.292Z,18.80
2018-08-11T23:57:30.027Z,18.80
